createdAt,value
2017-08-30T00:00:52.109Z,11.80
2017-08-30T00:03:19.641Z,10.93
2017-08-30T00:05:47.215Z,11.73
2017-08-30T00:08:14.752Z,12.30
2017-08-30T00:10:42.303Z,11.07
2017-08-30T00:13:09.836Z,12.67
2017-08-30T00:15:37.381Z,11.20
2017-08-30T00:18:04.947Z,11.80
2017-08-30T00:20:32.488Z,11.63
2017-08-30T00:23:00.038Z,11.80
2017-08-30T00:25:39.319Z,11.47
2017-08-30T00:28:06.934Z,11.33
2017-08-30T00:30:34.502Z,12.00
2017-08-30T00:33:02.082Z,12.87
2017-08-30T00:35:29.617Z,11.50
2017-08-30T00:37:58.117Z,11.63
2017-08-30T00:40:25.678Z,11.80
2017-08-30T00:42:53.226Z,11.90
2017-08-30T00:45:20.777Z,12.53
2017-08-30T00:47:48.345Z,12.17
2017-08-30T00:50:15.903Z,11.27
2017-08-30T00:52:43.423Z,12.10
2017-08-30T00:55:10.976Z,12.13
2017-08-30T00:57:38.492Z,12.20
2017-08-30T01:00:06.022Z,11.80
2017-08-30T01:02:33.557Z,12.30
2017-08-30T01:05:01.090Z,11.80
2017-08-30T01:07:28.652Z,11.37
2017-08-30T01:09:56.187Z,12.33
2017-08-30T01:12:24.625Z,12.00
2017-08-30T01:14:52.159Z,12.00
2017-08-30T01:17:19.731Z,11.37
2017-08-30T01:19:47.265Z,13.03
2017-08-30T01:22:14.791Z,10.43
2017-08-30T01:24:42.336Z,11.73
2017-08-30T01:27:09.882Z,12.37
2017-08-30T01:29:37.444Z,11.80
2017-08-30T01:32:04.969Z,12.43
2017-08-30T01:34:32.526Z,12.03
2017-08-30T01:37:00.061Z,11.63
2017-08-30T01:39:27.597Z,13.27
2017-08-30T01:41:55.156Z,13.17
2017-08-30T01:44:22.684Z,13.20
2017-08-30T01:46:50.244Z,12.67
2017-08-30T01:49:17.773Z,13.47
2017-08-30T01:51:45.337Z,13.63
2017-08-30T01:54:12.859Z,12.80
2017-08-30T01:56:40.385Z,13.97
2017-08-30T01:59:07.920Z,12.50
2017-08-30T02:01:35.443Z,11.90
2017-08-30T02:04:02.988Z,13.03
2017-08-30T02:06:30.513Z,11.83
2017-08-30T02:08:59.000Z,12.67
2017-08-30T02:11:26.970Z,12.53
2017-08-30T02:13:54.537Z,12.00
2017-08-30T02:16:22.066Z,12.63
2017-08-30T02:18:49.617Z,11.10
2017-08-30T02:21:17.140Z,14.00
2017-08-30T02:23:44.849Z,11.87
2017-08-30T02:26:12.397Z,12.03
2017-08-30T02:28:39.923Z,12.80
2017-08-30T02:31:07.477Z,12.00
2017-08-30T02:33:35.016Z,12.30
2017-08-30T02:36:02.573Z,11.77
2017-08-30T02:38:30.105Z,12.00
2017-08-30T02:40:57.672Z,12.20
2017-08-30T02:43:25.240Z,12.97
2017-08-30T02:45:52.839Z,12.47
2017-08-30T02:48:20.419Z,13.27
2017-08-30T02:50:47.946Z,12.90
2017-08-30T02:53:15.521Z,13.33
2017-08-30T02:55:43.053Z,12.63
2017-08-30T02:58:10.631Z,12.07
2017-08-30T03:00:38.178Z,12.70
2017-08-30T03:03:05.812Z,13.43
2017-08-30T03:05:33.341Z,12.70
2017-08-30T03:08:00.903Z,12.40
2017-08-30T03:10:29.012Z,11.83
2017-08-30T03:12:57.010Z,11.73
2017-08-30T03:15:24.544Z,12.00
2017-08-30T03:17:52.098Z,12.20
2017-08-30T03:20:19.648Z,11.90
2017-08-30T03:22:47.190Z,12.30
2017-08-30T03:25:14.747Z,12.20
2017-08-30T03:27:42.290Z,13.20
2017-08-30T03:30:09.884Z,11.93
2017-08-30T03:32:37.435Z,12.80
2017-08-30T03:35:04.987Z,12.90
2017-08-30T03:37:32.542Z,11.97
2017-08-30T03:40:00.114Z,12.87
2017-08-30T03:42:27.663Z,12.27
2017-08-30T03:44:55.194Z,13.90
2017-08-30T03:47:22.763Z,13.10
2017-08-30T03:49:50.317Z,12.30
2017-08-30T03:52:17.878Z,13.20
2017-08-30T03:54:45.427Z,14.07
2017-08-30T03:57:13.015Z,13.27
2017-08-30T03:59:42.589Z,13.73
2017-08-30T04:02:10.145Z,14.00
2017-08-30T04:04:38.708Z,13.53
2017-08-30T04:07:06.299Z,13.97
2017-08-30T04:09:33.881Z,12.70
2017-08-30T04:12:01.442Z,13.33
2017-08-30T04:14:29.014Z,13.47
2017-08-30T04:16:57.068Z,14.00
2017-08-30T04:19:24.632Z,12.80
2017-08-30T04:21:52.179Z,13.10
2017-08-30T04:24:19.770Z,12.17
2017-08-30T04:26:47.310Z,13.60
2017-08-30T04:29:14.878Z,12.17
2017-08-30T04:31:42.490Z,12.80
2017-08-30T04:34:10.072Z,13.67
2017-08-30T04:36:37.650Z,13.30
2017-08-30T04:39:05.214Z,13.57
2017-08-30T04:41:32.784Z,13.70
2017-08-30T04:44:00.334Z,12.90
2017-08-30T04:46:29.206Z,13.37
2017-08-30T04:48:57.132Z,13.17
2017-08-30T04:51:24.688Z,13.13
2017-08-30T04:53:52.231Z,12.53
2017-08-30T04:56:19.793Z,13.13
2017-08-30T04:58:47.334Z,12.70
2017-08-30T05:01:14.902Z,13.10
2017-08-30T05:03:42.450Z,12.70
2017-08-30T05:06:10.027Z,13.07
2017-08-30T05:08:37.596Z,13.13
2017-08-30T05:11:05.385Z,11.73
2017-08-30T05:13:32.944Z,12.57
2017-08-30T05:16:00.502Z,12.90
2017-08-30T05:18:28.568Z,12.67
2017-08-30T05:20:56.109Z,11.90
2017-08-30T05:23:23.657Z,12.57
2017-08-30T05:25:51.192Z,12.50
2017-08-30T05:28:18.740Z,12.17
2017-08-30T05:30:46.277Z,12.00
2017-08-30T05:33:13.838Z,13.07
2017-08-30T05:35:41.386Z,13.60
2017-08-30T05:38:08.921Z,13.30
2017-08-30T05:40:36.468Z,12.47
2017-08-30T05:43:03.991Z,12.00
2017-08-30T05:45:31.549Z,10.80
2017-08-30T05:47:59.085Z,11.80
2017-08-30T05:50:27.076Z,11.33
2017-08-30T05:52:54.602Z,12.07
2017-08-30T05:55:22.130Z,11.37
2017-08-30T05:57:49.688Z,12.80
2017-08-30T06:00:17.220Z,11.27
2017-08-30T06:02:44.771Z,11.00
2017-08-30T06:05:12.315Z,12.00
2017-08-30T06:07:39.889Z,12.23
2017-08-30T06:10:07.425Z,10.60
2017-08-30T06:12:34.973Z,11.37
2017-08-30T06:15:02.597Z,11.57
2017-08-30T06:17:30.182Z,11.47
2017-08-30T06:19:57.724Z,10.67
2017-08-30T06:22:25.257Z,11.63
2017-08-30T06:24:58.564Z,12.13
2017-08-30T06:27:26.142Z,12.20
2017-08-30T06:29:53.745Z,11.80
2017-08-30T06:32:22.316Z,10.57
2017-08-30T06:34:49.867Z,10.50
2017-08-30T06:37:17.393Z,11.37
2017-08-30T06:39:44.963Z,11.00
2017-08-30T06:42:12.509Z,11.33
2017-08-30T06:44:41.159Z,11.97
2017-08-30T06:47:08.701Z,10.43
2017-08-30T06:49:36.373Z,11.13
2017-08-30T06:52:03.905Z,11.30
2017-08-30T06:54:31.443Z,10.93
2017-08-30T06:56:59.000Z,10.97
2017-08-30T06:59:27.218Z,10.67
2017-08-30T07:01:54.760Z,11.37
2017-08-30T07:04:22.280Z,11.30
2017-08-30T07:06:49.855Z,11.33
2017-08-30T07:09:17.411Z,10.77
2017-08-30T07:11:44.935Z,12.50
2017-08-30T07:14:12.480Z,10.80
2017-08-30T07:16:40.024Z,10.90
2017-08-30T07:19:07.579Z,10.93
2017-08-30T07:21:35.129Z,11.20
2017-08-30T07:24:02.716Z,10.47
2017-08-30T07:26:30.255Z,10.47
2017-08-30T07:28:57.798Z,10.93
2017-08-30T07:31:25.362Z,12.50
2017-08-30T07:33:52.904Z,10.73
2017-08-30T07:36:20.568Z,10.30
2017-08-30T07:38:48.105Z,10.93
2017-08-30T07:41:15.657Z,11.80
2017-08-30T07:43:43.199Z,11.70
2017-08-30T07:46:10.762Z,11.70
2017-08-30T07:48:38.302Z,11.90
2017-08-30T07:51:05.828Z,10.87
2017-08-30T07:53:33.398Z,11.30
2017-08-30T07:56:00.946Z,11.53
2017-08-30T07:58:30.053Z,12.10
2017-08-30T08:00:57.621Z,12.70
2017-08-30T08:03:25.164Z,12.47
2017-08-30T08:05:52.701Z,12.00
2017-08-30T08:08:20.272Z,12.20
2017-08-30T08:10:47.800Z,12.93
2017-08-30T08:13:15.330Z,12.80
2017-08-30T08:15:42.896Z,13.17
2017-08-30T08:18:10.425Z,12.17
2017-08-30T08:20:37.985Z,12.33
2017-08-30T08:23:05.569Z,13.13
2017-08-30T08:25:33.159Z,12.87
2017-08-30T08:28:00.685Z,12.30
2017-08-30T08:30:29.193Z,12.50
2017-08-30T08:32:57.172Z,12.53
2017-08-30T08:35:24.725Z,12.63
2017-08-30T08:37:52.282Z,14.00
2017-08-30T08:40:19.881Z,13.00
2017-08-30T08:42:47.442Z,11.50
2017-08-30T08:45:14.989Z,13.00
2017-08-30T08:47:42.553Z,12.20
2017-08-30T08:50:10.101Z,12.93
2017-08-30T08:52:37.626Z,12.63
2017-08-30T08:55:05.175Z,12.07
2017-08-30T08:57:32.722Z,11.30
2017-08-30T09:00:00.282Z,12.40
2017-08-30T09:02:27.821Z,12.57
2017-08-30T09:04:55.377Z,12.53
2017-08-30T09:07:22.918Z,12.20
2017-08-30T09:09:50.450Z,12.87
2017-08-30T09:12:18.017Z,12.23
2017-08-30T09:14:45.566Z,11.83
2017-08-30T09:17:13.119Z,13.90
2017-08-30T09:19:40.649Z,14.07
2017-08-30T09:22:11.921Z,13.70
2017-08-30T09:24:39.462Z,14.07
2017-08-30T09:27:07.039Z,15.30
2017-08-30T09:29:34.598Z,14.13
2017-08-30T09:32:02.142Z,14.83
2017-08-30T09:34:29.710Z,15.43
2017-08-30T09:36:57.261Z,14.63
2017-08-30T09:39:24.831Z,15.10
2017-08-30T09:41:52.399Z,14.30
2017-08-30T09:44:19.957Z,14.33
2017-08-30T09:46:47.488Z,13.93
2017-08-30T09:49:15.052Z,13.30
2017-08-30T09:51:42.604Z,13.17
2017-08-30T09:54:10.147Z,14.00
2017-08-30T09:56:37.696Z,13.23
2017-08-30T09:59:05.224Z,14.10
2017-08-30T10:01:32.806Z,13.87
2017-08-30T10:04:00.340Z,12.97
2017-08-30T10:06:27.934Z,14.73
2017-08-30T10:08:55.513Z,13.47
2017-08-30T10:11:23.037Z,13.23
2017-08-30T10:13:50.589Z,13.13
2017-08-30T10:16:18.127Z,13.70
2017-08-30T10:18:45.672Z,12.87
2017-08-30T10:21:13.211Z,13.17
2017-08-30T10:23:40.768Z,11.90
2017-08-30T10:26:08.295Z,13.47
2017-08-30T10:28:35.862Z,13.70
2017-08-30T10:31:03.408Z,13.17
2017-08-30T10:33:30.937Z,15.40
2017-08-30T10:35:59.917Z,13.67
2017-08-30T10:38:28.643Z,14.00
2017-08-30T10:40:56.181Z,13.40
2017-08-30T10:43:23.702Z,13.53
2017-08-30T10:45:51.249Z,13.00
2017-08-30T10:48:18.785Z,13.80
2017-08-30T10:50:46.360Z,12.90
2017-08-30T10:53:13.885Z,13.03
2017-08-30T10:55:43.445Z,13.40
2017-08-30T10:58:12.051Z,13.33
2017-08-30T11:00:39.589Z,14.10
2017-08-30T11:03:07.985Z,13.40
2017-08-30T11:05:35.521Z,13.67
2017-08-30T11:08:03.089Z,13.53
2017-08-30T11:10:30.621Z,13.00
2017-08-30T11:12:59.344Z,13.43
2017-08-30T11:15:27.591Z,13.50
2017-08-30T11:17:55.151Z,12.93
2017-08-30T11:20:22.834Z,13.23
2017-08-30T11:22:50.382Z,13.53
2017-08-30T11:25:17.916Z,13.07
2017-08-30T11:27:45.513Z,13.27
2017-08-30T11:30:13.045Z,14.40
2017-08-30T11:32:40.573Z,13.27
2017-08-30T11:35:08.144Z,14.90
2017-08-30T11:37:35.665Z,15.40
2017-08-30T11:40:03.179Z,15.63
2017-08-30T11:42:30.732Z,16.10
2017-08-30T11:44:58.764Z,14.50
2017-08-30T11:47:26.318Z,13.50
2017-08-30T11:49:53.881Z,14.33
2017-08-30T11:52:21.457Z,13.00
2017-08-30T11:54:49.159Z,13.07
2017-08-30T11:57:16.689Z,13.13
2017-08-30T11:59:44.249Z,14.20
2017-08-30T12:02:11.776Z,13.93
2017-08-30T12:04:39.324Z,13.60
2017-08-30T12:07:06.845Z,13.30
2017-08-30T12:09:34.454Z,14.53
2017-08-30T12:12:01.980Z,14.30
2017-08-30T12:14:29.689Z,13.70
2017-08-30T12:16:58.420Z,13.33
2017-08-30T12:19:25.952Z,13.57
2017-08-30T12:21:53.501Z,13.47
2017-08-30T12:24:21.025Z,13.90
2017-08-30T12:26:48.574Z,13.33
2017-08-30T12:29:16.158Z,13.50
2017-08-30T12:31:43.685Z,13.60
2017-08-30T12:34:11.237Z,13.87
2017-08-30T12:36:44.568Z,13.93
2017-08-30T12:39:17.893Z,13.13
2017-08-30T12:41:45.414Z,14.13
2017-08-30T12:44:12.966Z,14.87
2017-08-30T12:46:40.523Z,14.63
2017-08-30T12:49:08.069Z,14.40
2017-08-30T12:51:35.673Z,15.47
2017-08-30T12:54:03.218Z,15.00
2017-08-30T12:56:30.801Z,14.87
2017-08-30T12:58:59.716Z,14.50
2017-08-30T13:01:28.493Z,15.13
2017-08-30T13:03:56.023Z,14.20
2017-08-30T13:06:23.582Z,13.50
2017-08-30T13:08:51.147Z,13.50
2017-08-30T13:11:18.706Z,14.10
2017-08-30T13:13:46.252Z,15.20
2017-08-30T13:16:13.778Z,15.60
2017-08-30T13:18:41.341Z,15.03
2017-08-30T13:21:08.857Z,15.93
2017-08-30T13:23:36.413Z,15.03
2017-08-30T13:26:03.947Z,16.30
2017-08-30T13:28:31.507Z,14.47
2017-08-30T13:30:59.671Z,15.17
2017-08-30T13:33:28.268Z,14.53
2017-08-30T13:35:55.809Z,14.80
2017-08-30T13:38:23.374Z,14.10
2017-08-30T13:40:50.904Z,14.93
2017-08-30T13:43:18.437Z,15.67
2017-08-30T13:45:46.004Z,13.83
2017-08-30T13:48:13.564Z,14.97
2017-08-30T13:50:41.135Z,14.67
2017-08-30T13:53:08.652Z,14.73
2017-08-30T13:55:36.210Z,14.93
2017-08-30T13:58:03.830Z,15.17
2017-08-30T14:00:31.445Z,14.40
2017-08-30T14:02:59.039Z,14.23
2017-08-30T14:05:26.561Z,14.53
2017-08-30T14:07:54.160Z,15.07
2017-08-30T14:10:21.705Z,14.00
2017-08-30T14:12:49.268Z,15.10
2017-08-30T14:15:16.852Z,15.67
2017-08-30T14:17:44.398Z,15.73
2017-08-30T14:20:11.966Z,16.33
2017-08-30T14:22:39.507Z,14.67
2017-08-30T14:25:07.125Z,15.83
2017-08-30T14:27:34.783Z,16.13
2017-08-30T14:30:02.342Z,16.07
2017-08-30T14:32:30.182Z,16.77
2017-08-30T14:34:58.335Z,16.53
2017-08-30T14:37:25.908Z,18.33
2017-08-30T14:39:53.461Z,18.50
2017-08-30T14:42:21.020Z,17.57
2017-08-30T14:44:48.577Z,16.93
2017-08-30T14:47:16.116Z,17.23
2017-08-30T14:49:43.664Z,17.63
2017-08-30T14:52:11.201Z,17.90
2017-08-30T14:54:38.756Z,18.93
2017-08-30T14:57:06.322Z,18.30
2017-08-30T14:59:33.876Z,18.50
2017-08-30T15:02:01.407Z,18.27
2017-08-30T15:04:29.513Z,18.93
2017-08-30T15:06:57.497Z,18.77
2017-08-30T15:09:25.040Z,18.27
2017-08-30T15:11:52.583Z,19.13
2017-08-30T15:14:20.149Z,18.03
2017-08-30T15:16:47.684Z,17.90
2017-08-30T15:19:15.251Z,19.80
2017-08-30T15:21:42.787Z,20.07
2017-08-30T15:24:10.396Z,21.40
2017-08-30T15:26:37.921Z,19.90
2017-08-30T15:29:05.501Z,19.00
2017-08-30T15:31:33.073Z,20.87
2017-08-30T15:34:00.752Z,20.63
2017-08-30T15:36:28.647Z,22.47
2017-08-30T15:38:56.369Z,19.53
2017-08-30T15:41:23.933Z,20.90
2017-08-30T15:43:51.514Z,20.47
2017-08-30T15:46:19.425Z,23.03
2017-08-30T15:48:47.111Z,20.30
2017-08-30T15:51:14.732Z,20.23
2017-08-30T15:53:42.412Z,20.70
2017-08-30T15:56:10.043Z,21.20
2017-08-30T15:58:37.593Z,19.87
2017-08-30T16:01:05.260Z,20.13
2017-08-30T16:03:32.882Z,20.13
2017-08-30T16:06:00.550Z,21.43
2017-08-30T16:08:29.007Z,19.97
2017-08-30T16:10:56.583Z,23.13
2017-08-30T16:13:24.115Z,21.97
2017-08-30T16:15:51.665Z,21.57
2017-08-30T16:18:19.235Z,20.80
2017-08-30T16:20:46.839Z,21.10
2017-08-30T16:23:14.366Z,20.67
2017-08-30T16:25:41.941Z,22.37
2017-08-30T16:28:09.482Z,22.70
2017-08-30T16:30:37.062Z,20.60
2017-08-30T16:33:04.618Z,22.97
2017-08-30T16:35:32.194Z,23.30
2017-08-30T16:37:59.786Z,22.67
2017-08-30T16:40:27.971Z,22.40
2017-08-30T16:42:55.526Z,21.10
2017-08-30T16:45:23.176Z,22.87
2017-08-30T16:47:50.716Z,24.40
2017-08-30T16:50:18.332Z,22.00
2017-08-30T16:52:45.932Z,21.83
2017-08-30T16:55:13.727Z,22.90
2017-08-30T16:57:41.241Z,22.17
2017-08-30T17:00:09.348Z,22.47
2017-08-30T17:02:37.068Z,23.67
2017-08-30T17:05:04.614Z,24.80
2017-08-30T17:07:32.165Z,25.30
2017-08-30T17:10:00.470Z,23.20
2017-08-30T17:12:28.050Z,27.80
2017-08-30T17:14:55.624Z,33.00
2017-08-30T17:17:23.151Z,37.70
2017-08-30T17:19:50.702Z,35.60
2017-08-30T17:22:18.231Z,30.00
2017-08-30T17:24:45.809Z,32.23
2017-08-30T17:27:13.569Z,38.70
2017-08-30T17:29:41.136Z,38.57
2017-08-30T17:32:08.682Z,37.30
2017-08-30T17:34:36.286Z,42.60
2017-08-30T17:37:03.868Z,41.47
2017-08-30T17:39:31.480Z,47.20
2017-08-30T17:42:00.149Z,53.70
2017-08-30T17:44:29.105Z,51.17
2017-08-30T17:46:56.664Z,50.30
2017-08-30T17:49:24.201Z,53.67
2017-08-30T17:51:51.938Z,49.73
2017-08-30T17:54:19.477Z,53.00
2017-08-30T17:56:47.100Z,53.90
2017-08-30T17:59:14.644Z,54.87
2017-08-30T18:01:42.214Z,55.17
2017-08-30T18:04:09.756Z,55.30
2017-08-30T18:06:37.370Z,56.60
2017-08-30T18:09:04.985Z,58.20
2017-08-30T18:11:32.552Z,59.60
2017-08-30T18:14:00.085Z,55.60
2017-08-30T18:16:28.650Z,59.77
2017-08-30T18:18:56.183Z,63.87
2017-08-30T18:21:23.744Z,55.73
2017-08-30T18:23:51.304Z,61.73
2017-08-30T18:26:18.877Z,59.50
2017-08-30T18:28:46.406Z,61.40
2017-08-30T18:31:13.969Z,62.53
2017-08-30T18:33:41.508Z,57.80
2017-08-30T18:36:09.068Z,57.93
2017-08-30T18:38:36.608Z,58.73
2017-08-30T18:41:04.201Z,53.00
2017-08-30T18:43:31.794Z,42.23
2017-08-30T18:45:59.438Z,45.00
2017-08-30T18:48:27.752Z,46.30
2017-08-30T18:50:55.413Z,45.07
2017-08-30T18:53:22.932Z,43.57
2017-08-30T18:55:50.461Z,41.47
2017-08-30T18:58:18.012Z,42.23
2017-08-30T19:00:45.574Z,42.33
2017-08-30T19:03:13.140Z,42.93
2017-08-30T19:05:40.670Z,44.10
2017-08-30T19:08:08.219Z,46.20
2017-08-30T19:10:35.758Z,48.20
2017-08-30T19:13:03.345Z,46.87
2017-08-30T19:15:30.878Z,40.03
2017-08-30T19:17:59.042Z,46.23
2017-08-30T19:20:26.600Z,47.30
2017-08-30T19:22:54.184Z,47.20
2017-08-30T19:25:21.729Z,47.43
2017-08-30T19:27:49.366Z,45.37
2017-08-30T19:30:16.945Z,48.30
2017-08-30T19:32:44.488Z,51.17
2017-08-30T19:35:12.058Z,52.40
2017-08-30T19:37:39.614Z,52.73
2017-08-30T19:40:07.198Z,51.37
2017-08-30T19:42:34.732Z,50.20
2017-08-30T19:45:02.392Z,42.03
2017-08-30T19:47:29.990Z,39.13
2017-08-30T19:49:58.156Z,35.53
2017-08-30T19:52:25.697Z,37.30
2017-08-30T19:54:53.341Z,35.80
2017-08-30T19:57:20.899Z,37.30
2017-08-30T19:59:48.484Z,36.23
2017-08-30T20:02:16.029Z,33.23
2017-08-30T20:04:43.592Z,36.87
2017-08-30T20:07:11.137Z,36.37
2017-08-30T20:09:38.673Z,37.47
2017-08-30T20:12:06.281Z,37.27
2017-08-30T20:14:33.816Z,27.97
2017-08-30T20:17:01.374Z,23.33
2017-08-30T20:19:30.268Z,19.10
2017-08-30T20:21:58.638Z,13.90
2017-08-30T20:24:26.180Z,12.70
2017-08-30T20:26:53.765Z,11.97
2017-08-30T20:29:21.352Z,12.50
2017-08-30T20:31:48.890Z,12.33
2017-08-30T20:34:16.435Z,13.03
2017-08-30T20:36:43.963Z,13.33
2017-08-30T20:39:11.508Z,11.57
2017-08-30T20:41:39.057Z,11.83
2017-08-30T20:44:06.605Z,10.50
2017-08-30T20:46:34.131Z,10.20
2017-08-30T20:49:01.703Z,11.70
2017-08-30T20:51:29.250Z,10.83
2017-08-30T20:53:56.818Z,13.30
2017-08-30T20:56:24.352Z,11.20
2017-08-30T20:58:51.898Z,13.60
2017-08-30T21:01:19.447Z,12.37
2017-08-30T21:03:46.968Z,12.33
2017-08-30T21:06:14.530Z,11.87
2017-08-30T21:08:42.069Z,12.87
2017-08-30T21:11:09.623Z,11.50
2017-08-30T21:13:37.244Z,11.63
2017-08-30T21:16:04.816Z,12.23
2017-08-30T21:18:32.343Z,13.50
2017-08-30T21:20:59.901Z,12.17
2017-08-30T21:23:28.428Z,12.70
2017-08-30T21:25:55.976Z,12.20
2017-08-30T21:28:23.520Z,13.80
2017-08-30T21:30:51.054Z,12.57
2017-08-30T21:33:18.623Z,11.73
2017-08-30T21:35:46.164Z,13.13
2017-08-30T21:38:13.713Z,13.20
2017-08-30T21:40:41.249Z,13.90
2017-08-30T21:43:08.814Z,12.13
2017-08-30T21:45:36.332Z,11.33
2017-08-30T21:48:03.889Z,12.80
2017-08-30T21:50:31.415Z,13.00
2017-08-30T21:53:00.330Z,13.10
2017-08-30T21:55:29.168Z,13.60
2017-08-30T21:57:56.726Z,11.97
2017-08-30T22:00:24.307Z,12.00
2017-08-30T22:02:51.842Z,11.60
2017-08-30T22:05:19.412Z,13.37
2017-08-30T22:07:46.957Z,12.70
2017-08-30T22:10:14.530Z,10.23
2017-08-30T22:12:42.069Z,11.47
2017-08-30T22:15:09.606Z,10.83
2017-08-30T22:17:37.134Z,12.27
2017-08-30T22:20:04.675Z,10.60
2017-08-30T22:22:32.226Z,11.30
2017-08-30T22:25:00.281Z,10.23
2017-08-30T22:27:28.988Z,10.20
2017-08-30T22:29:56.533Z,10.20
2017-08-30T22:32:24.078Z,9.10
2017-08-30T22:34:51.603Z,11.20
2017-08-30T22:37:19.148Z,11.43
2017-08-30T22:39:46.689Z,10.60
2017-08-30T22:42:14.250Z,10.77
2017-08-30T22:44:41.772Z,11.40
2017-08-30T22:47:09.313Z,10.83
2017-08-30T22:49:36.852Z,11.00
2017-08-30T22:52:04.399Z,10.13
2017-08-30T22:54:31.929Z,10.30
2017-08-30T22:56:59.781Z,12.17
2017-08-30T22:59:27.766Z,12.03
2017-08-30T23:01:55.313Z,11.97
2017-08-30T23:04:22.858Z,11.80
2017-08-30T23:06:50.398Z,11.77
2017-08-30T23:09:17.940Z,11.10
2017-08-30T23:11:45.507Z,11.70
2017-08-30T23:14:13.057Z,11.33
2017-08-30T23:16:40.572Z,11.27
2017-08-30T23:19:08.120Z,11.70
2017-08-30T23:21:35.694Z,12.77
2017-08-30T23:24:03.260Z,13.70
2017-08-30T23:26:30.793Z,13.07
2017-08-30T23:28:58.355Z,13.13
2017-08-30T23:31:25.889Z,13.97
2017-08-30T23:33:53.469Z,14.60
2017-08-30T23:36:21.016Z,16.47
2017-08-30T23:38:48.532Z,14.50
2017-08-30T23:41:16.076Z,16.00
2017-08-30T23:43:43.602Z,15.67
2017-08-30T23:46:11.159Z,16.17
2017-08-30T23:48:38.717Z,17.40
2017-08-30T23:51:06.277Z,17.57
2017-08-30T23:53:33.802Z,18.73
2017-08-30T23:56:01.404Z,16.50
2017-08-30T23:58:30.119Z,17.73
